Time;durP1;ratioP1;P1;durP2;ratioP2;P2;SDS_P1;SDS_P2;PMS_P1;PMS_P2;Temp;Humidity;BMP_temperature;BMP_pressure;BME280_temperature;BME280_humidity;BME280_pressure;Samples;Min_cycle;Max_cycle;Signal;HPM_P1;HPM_P2
2024/02/29 00:00:24;;;;;;;4.38;2.22;;;10.40;99.90;;;;;;4249727;27;20381;-58
2024/02/29 00:02:29;;;;;;;1.15;0.40;;;10.40;99.90;;;;;;4250356;27;20417;-59
2024/02/29 00:04:32;;;;;;;1.73;0.47;;;10.40;99.90;;;;;;4249883;27;20049;-59
2024/02/29 00:06:34;;;;;;;0.95;0.50;;;10.40;99.90;;;;;;4249699;27;20433;-57
2024/02/29 00:08:36;;;;;;;1.10;0.70;;;10.50;99.90;;;;;;4249580;27;20130;-59
2024/02/29 00:10:38;;;;;;;1.65;0.40;;;10.50;99.90;;;;;;4231548;28;20039;-58
2024/02/29 00:12:41;;;;;;;5.63;2.42;;;10.60;99.90;;;;;;4249147;27;20046;-59
2024/02/29 00:14:44;;;;;;;1.02;0.80;;;10.60;99.90;;;;;;4248321;27;20043;-59
2024/02/29 00:16:46;;;;;;;1.00;0.60;;;10.60;99.90;;;;;;4249486;27;20073;-58
2024/02/29 00:18:48;;;;;;;0.60;0.45;;;10.50;99.90;;;;;;4249696;27;20043;-59
2024/02/29 00:20:50;;;;;;;3.83;1.05;;;10.50;99.90;;;;;;4249454;27;20043;-62
2024/02/29 00:22:53;;;;;;;0.55;0.55;;;10.50;99.90;;;;;;4249787;27;20123;-59
2024/02/29 00:24:55;;;;;;;1.20;0.52;;;10.50;99.90;;;;;;4231449;28;20044;-59
2024/02/29 00:26:57;;;;;;;0.43;0.40;;;10.60;99.90;;;;;;4249302;27;20051;-59
2024/02/29 00:29:01;;;;;;;0.50;0.28;;;10.60;99.90;;;;;;4249500;27;20046;-60
2024/02/29 00:31:05;;;;;;;2.47;1.37;;;10.50;99.90;;;;;;4249216;27;20055;-59
2024/02/29 00:33:07;;;;;;;0.85;0.73;;;10.50;99.90;;;;;;4249361;27;20401;-58
2024/02/29 00:35:09;;;;;;;1.50;0.82;;;10.50;99.90;;;;;;4249432;27;20047;-58
2024/02/29 00:37:11;;;;;;;1.05;0.70;;;10.50;99.90;;;;;;4249109;27;20123;-58
2024/02/29 00:39:13;;;;;;;1.45;0.45;;;10.60;99.90;;;;;;4260539;27;20127;-60
2024/02/29 00:41:17;;;;;;;1.40;1.02;;;10.60;99.90;;;;;;4266080;27;20408;-59
2024/02/29 00:43:19;;;;;;;0.70;0.40;;;10.50;99.90;;;;;;4266380;27;20133;-64
2024/02/29 00:45:21;;;;;;;1.27;0.57;;;10.60;99.90;;;;;;4266106;27;20042;-59
2024/02/29 00:47:25;;;;;;;1.10;0.50;;;10.60;99.90;;;;;;4266098;27;20066;-58
2024/02/29 00:49:27;;;;;;;0.60;0.50;;;10.60;99.90;;;;;;4266240;27;20399;-58
2024/02/29 00:51:28;;;;;;;0.55;0.40;;;10.50;99.90;;;;;;4266373;27;20038;-58
2024/02/29 00:53:31;;;;;;;2.67;1.10;;;10.50;99.90;;;;;;4266122;27;20125;-58
2024/02/29 00:55:33;;;;;;;0.50;0.50;;;10.50;99.90;;;;;;4265619;27;20071;-59
2024/02/29 00:57:35;;;;;;;7.25;1.83;;;10.50;99.90;;;;;;4265991;27;20047;-58
2024/02/29 00:59:37;;;;;;;1.30;0.65;;;10.60;99.90;;;;;;4265740;27;20047;-58
2024/02/29 01:01:39;;;;;;;0.90;0.50;;;10.60;99.90;;;;;;4265831;27;20130;-57
2024/02/29 01:03:42;;;;;;;1.25;0.60;;;10.60;99.90;;;;;;4266014;27;20046;-58
2024/02/29 01:05:44;;;;;;;0.50;0.40;;;10.50;99.90;;;;;;4265950;27;20519;-59
2024/02/29 01:07:47;;;;;;;0.38;0.30;;;10.60;99.90;;;;;;4265831;27;20049;-58
2024/02/29 01:09:49;;;;;;;0.38;0.20;;;10.60;99.90;;;;;;4265337;27;20122;-59
2024/02/29 01:11:51;;;;;;;1.02;0.50;;;10.50;99.90;;;;;;4265830;27;20046;-59
2024/02/29 01:13:53;;;;;;;1.05;0.70;;;10.60;99.90;;;;;;4266130;27;20502;-59
2024/02/29 01:15:55;;;;;;;0.43;0.20;;;10.60;99.90;;;;;;4265924;27;20047;-59
2024/02/29 01:17:57;;;;;;;0.98;0.43;;;10.60;99.90;;;;;;4265925;27;20089;-58
2024/02/29 01:20:01;;;;;;;0.82;0.75;;;10.60;99.90;;;;;;4265597;27;20057;-59
2024/02/29 01:22:04;;;;;;;3.00;1.25;;;10.60;99.90;;;;;;4265600;27;20042;-59
2024/02/29 01:24:06;;;;;;;5.43;1.48;;;10.60;99.90;;;;;;4265306;27;20039;-57
2024/02/29 01:26:10;;;;;;;3.05;0.85;;;10.70;99.90;;;;;;4265262;27;20137;-58
2024/02/29 01:28:12;;;;;;;1.25;0.50;;;10.60;99.90;;;;;;4265629;27;20045;-57
2024/02/29 01:30:14;;;;;;;0.55;0.20;;;10.60;99.90;;;;;;4265676;27;20046;-58
2024/02/29 01:32:16;;;;;;;0.25;0.20;;;10.60;99.90;;;;;;4265692;27;20054;-58
2024/02/29 01:34:28;;;;;;;1.05;0.60;;;10.60;99.90;;;;;;4265568;27;20054;-57
2024/02/29 01:36:31;;;;;;;0.95;0.65;;;10.50;99.90;;;;;;4265571;27;20126;-58
2024/02/29 01:38:33;;;;;;;1.35;0.70;;;10.60;99.90;;;;;;4265262;27;20035;-59
2024/02/29 01:40:36;;;;;;;0.65;0.30;;;10.50;99.90;;;;;;4266172;27;20050;-59
2024/02/29 01:42:40;;;;;;;0.90;0.28;;;10.60;99.90;;;;;;4265490;27;20051;-58
2024/02/29 01:44:54;;;;;;;0.50;0.30;;;10.60;99.90;;;;;;4265499;27;20129;-58
2024/02/29 01:46:56;;;;;;;1.15;0.57;;;10.60;99.90;;;;;;4265309;27;20498;-59
2024/02/29 01:49:00;;;;;;;0.17;0.17;;;10.60;99.90;;;;;;4265475;27;20480;-59
2024/02/29 01:51:03;;;;;;;1.40;0.45;;;10.60;99.90;;;;;;4265274;27;20066;-59
2024/02/29 01:53:08;;;;;;;0.75;0.65;;;10.60;99.90;;;;;;4264920;27;20043;-60
2024/02/29 01:55:11;;;;;;;1.45;0.52;;;10.60;99.90;;;;;;4265017;27;20045;-57
2024/02/29 01:57:13;;;;;;;1.38;0.30;;;10.60;99.90;;;;;;4265391;27;20488;-58
2024/02/29 01:59:16;;;;;;;0.20;0.20;;;10.60;99.90;;;;;;4265114;27;20045;-63
2024/02/29 02:01:19;;;;;;;0.20;0.20;;;10.60;99.90;;;;;;4265462;27;20043;-58
2024/02/29 02:03:22;;;;;;;1.80;1.17;;;10.70;99.90;;;;;;4266094;27;20039;-61
2024/02/29 02:05:24;;;;;;;0.45;0.30;;;10.70;99.90;;;;;;4266122;27;20442;-58
2024/02/29 02:07:28;;;;;;;2.47;0.30;;;10.70;99.90;;;;;;4265680;27;20051;-57
2024/02/29 02:09:32;;;;;;;0.28;0.28;;;10.80;99.90;;;;;;4265846;27;20046;-57
2024/02/29 02:11:34;;;;;;;0.50;0.30;;;10.80;99.90;;;;;;4265977;27;20046;-59
2024/02/29 02:13:38;;;;;;;0.25;0.22;;;10.70;99.90;;;;;;4265778;27;20038;-58
2024/02/29 02:15:41;;;;;;;0.10;0.10;;;10.60;99.90;;;;;;4265779;27;20424;-59
2024/02/29 02:17:43;;;;;;;0.70;0.45;;;10.70;99.90;;;;;;4265623;27;20484;-65
2024/02/29 02:19:46;;;;;;;1.02;0.60;;;10.70;99.90;;;;;;4265670;27;20121;-60
2024/02/29 02:21:49;;;;;;;2.83;0.32;;;10.70;99.90;;;;;;4265123;27;20488;-63
2024/02/29 02:23:52;;;;;;;1.25;0.90;;;10.70;99.90;;;;;;4264837;27;20116;-59
2024/02/29 02:25:57;;;;;;;0.77;0.50;;;10.70;99.90;;;;;;4247146;27;20426;-59
2024/02/29 02:27:59;;;;;;;0.20;0.20;;;10.80;99.90;;;;;;4265494;27;20047;-58
2024/02/29 02:30:06;;;;;;;0.50;0.32;;;10.70;99.90;;;;;;4265239;27;20046;-58
2024/02/29 02:32:09;;;;;;;10.45;0.65;;;10.80;99.90;;;;;;4264990;27;20536;-59
2024/02/29 02:34:11;;;;;;;0.52;0.20;;;10.70;99.90;;;;;;4264743;27;20114;-59
2024/02/29 02:36:13;;;;;;;0.57;0.52;;;10.80;99.90;;;;;;4264533;27;20046;-59
2024/02/29 02:38:17;;;;;;;0.30;0.20;;;10.80;99.90;;;;;;4247390;27;20039;-58
2024/02/29 02:40:19;;;;;;;0.10;0.10;;;10.80;99.90;;;;;;4268016;27;20039;-58
2024/02/29 02:42:21;;;;;;;0.55;0.40;;;10.80;99.90;;;;;;4268085;27;20043;-58
2024/02/29 02:44:23;;;;;;;0.28;0.20;;;10.80;99.90;;;;;;4268006;27;20047;-58
2024/02/29 02:46:25;;;;;;;0.85;0.60;;;10.70;99.90;;;;;;4267928;27;20475;-59
2024/02/29 02:48:28;;;;;;;1.10;0.93;;;10.70;99.90;;;;;;4268026;27;20061;-58
2024/02/29 02:50:30;;;;;;;0.80;0.28;;;10.70;99.90;;;;;;4268565;27;20050;-58
2024/02/29 02:52:32;;;;;;;1.48;1.27;;;10.60;99.90;;;;;;4268310;27;20472;-58
2024/02/29 02:54:35;;;;;;;1.38;0.82;;;10.60;99.90;;;;;;4268153;27;20046;-58
2024/02/29 02:56:37;;;;;;;1.38;0.47;;;10.50;99.90;;;;;;4249398;27;20059;-58
2024/02/29 02:58:39;;;;;;;0.40;0.22;;;10.60;99.90;;;;;;4250716;27;20043;-58
2024/02/29 03:00:42;;;;;;;0.95;0.40;;;10.60;99.90;;;;;;4250990;27;20047;-58
2024/02/29 03:02:44;;;;;;;0.30;0.30;;;10.60;99.90;;;;;;4250607;27;20092;-58
2024/02/29 03:04:47;;;;;;;0.40;0.35;;;10.60;99.90;;;;;;4250844;27;20395;-58
2024/02/29 03:06:49;;;;;;;0.10;0.10;;;10.60;99.90;;;;;;4249167;27;20042;-59
2024/02/29 03:08:51;;;;;;;0.25;0.20;;;10.60;99.90;;;;;;4250833;27;20043;-58
2024/02/29 03:10:54;;;;;;;0.80;0.30;;;10.60;99.90;;;;;;4250595;27;20054;-59
2024/02/29 03:12:57;;;;;;;0.32;0.30;;;10.60;99.90;;;;;;4250702;27;20051;-63
2024/02/29 03:14:59;;;;;;;0.30;0.30;;;10.60;99.90;;;;;;4250952;27;20054;-59
2024/02/29 03:17:01;;;;;;;3.83;1.23;;;10.60;99.90;;;;;;4250665;27;20047;-58
2024/02/29 03:19:04;;;;;;;0.80;0.47;;;10.70;99.90;;;;;;4250877;27;20396;-58
2024/02/29 03:21:07;;;;;;;0.38;0.20;;;10.70;99.90;;;;;;4250114;27;20039;-60
2024/02/29 03:23:09;;;;;;;0.30;0.30;;;10.70;99.90;;;;;;4250862;27;20083;-59
2024/02/29 03:25:11;;;;;;;0.70;0.52;;;10.70;99.90;;;;;;4250669;27;20043;-59
2024/02/29 03:27:14;;;;;;;0.40;0.30;;;10.80;99.90;;;;;;4250499;27;20145;-60
2024/02/29 03:29:16;;;;;;;0.65;0.25;;;10.70;99.90;;;;;;4248931;27;20560;-59
2024/02/29 03:31:18;;;;;;;1.35;1.25;;;10.70;99.90;;;;;;4248967;27;20090;-59
2024/02/29 03:33:20;;;;;;;0.32;0.32;;;10.60;99.90;;;;;;4250368;27;20070;-58
2024/02/29 03:35:22;;;;;;;0.20;0.20;;;10.60;99.90;;;;;;4249829;27;20134;-58
2024/02/29 03:37:25;;;;;;;0.30;0.30;;;10.60;99.90;;;;;;4250383;27;20075;-59
2024/02/29 03:39:27;;;;;;;1.00;0.38;;;10.70;99.90;;;;;;4250281;27;20047;-60
2024/02/29 03:41:29;;;;;;;0.43;0.32;;;10.60;99.90;;;;;;4250414;27;20419;-59
2024/02/29 03:43:34;;;;;;;0.60;0.28;;;10.60;99.90;;;;;;4250222;27;20043;-59
2024/02/29 03:45:36;;;;;;;0.30;0.30;;;10.70;99.90;;;;;;4249942;27;20092;-58
2024/02/29 03:47:38;;;;;;;0.73;0.32;;;10.70;99.90;;;;;;4250097;27;20511;-59
2024/02/29 03:49:40;;;;;;;0.30;0.30;;;10.70;99.90;;;;;;4249651;27;20071;-59
2024/02/29 03:51:42;;;;;;;0.80;0.73;;;10.80;99.90;;;;;;4250356;27;20122;-60
2024/02/29 03:53:44;;;;;;;0.30;0.20;;;10.70;99.90;;;;;;4249905;27;20069;-59
2024/02/29 03:55:48;;;;;;;0.20;0.20;;;10.60;99.90;;;;;;4257213;27;20055;-59
2024/02/29 03:57:50;;;;;;;0.43;0.30;;;10.60;99.90;;;;;;4267059;27;20045;-59
2024/02/29 03:59:54;;;;;;;0.55;0.40;;;10.60;99.90;;;;;;4267025;27;20053;-59
2024/02/29 04:01:56;;;;;;;0.40;0.40;;;10.70;99.90;;;;;;4267639;27;20480;-59
2024/02/29 04:03:58;;;;;;;0.68;0.40;;;10.60;99.90;;;;;;4266477;27;20042;-58
2024/02/29 04:06:00;;;;;;;0.52;0.52;;;10.70;99.90;;;;;;4266681;27;20045;-58
2024/02/29 04:08:10;;;;;;;0.68;0.43;;;10.60;99.90;;;;;;4266773;27;20050;-59
2024/02/29 04:10:13;;;;;;;0.28;0.28;;;10.60;99.90;;;;;;4266645;27;20039;-59
2024/02/29 04:12:15;;;;;;;0.22;0.22;;;10.60;99.90;;;;;;4266913;27;20045;-58
2024/02/29 04:14:17;;;;;;;0.40;0.25;;;10.60;99.90;;;;;;4248207;27;20104;-59
2024/02/29 04:16:20;;;;;;;0.68;0.35;;;10.60;99.90;;;;;;4266667;27;20126;-59
2024/02/29 04:18:22;;;;;;;0.22;0.22;;;10.60;99.90;;;;;;4266460;27;20049;-59
2024/02/29 04:20:24;;;;;;;2.63;1.33;;;10.70;99.90;;;;;;4266703;27;20492;-60
2024/02/29 04:22:26;;;;;;;0.60;0.52;;;10.70;99.90;;;;;;4266498;27;20047;-58
2024/02/29 04:24:28;;;;;;;1.45;1.10;;;10.50;99.90;;;;;;4266540;27;20445;-60
2024/02/29 04:26:30;;;;;;;1.35;0.45;;;10.50;99.90;;;;;;4267075;27;20086;-61
2024/02/29 04:28:33;;;;;;;0.55;0.47;;;10.60;99.90;;;;;;4266992;27;20042;-58
2024/02/29 04:30:35;;;;;;;0.65;0.60;;;10.60;99.90;;;;;;4266396;27;20063;-59
2024/02/29 04:32:38;;;;;;;1.15;0.70;;;10.70;99.90;;;;;;4266073;27;20050;-58
2024/02/29 04:34:41;;;;;;;1.10;0.93;;;10.70;99.90;;;;;;4266699;27;20126;-59
2024/02/29 04:36:43;;;;;;;0.38;0.38;;;10.70;99.90;;;;;;4266993;27;20079;-58
2024/02/29 04:38:49;;;;;;;0.77;0.60;;;10.70;99.90;;;;;;4266323;27;20119;-59
2024/02/29 04:40:54;;;;;;;0.93;0.40;;;10.70;99.90;;;;;;4266402;27;20131;-59
2024/02/29 04:42:56;;;;;;;0.63;0.63;;;10.80;99.90;;;;;;4266273;27;20061;-59
2024/02/29 04:44:58;;;;;;;7.72;1.10;;;10.70;99.90;;;;;;4266322;27;20091;-59
2024/02/29 04:47:00;;;;;;;0.98;0.43;;;10.70;99.90;;;;;;4266052;27;20066;-59
2024/02/29 04:49:04;;;;;;;0.55;0.38;;;10.70;99.90;;;;;;4266539;27;20121;-59
2024/02/29 04:51:06;;;;;;;0.40;0.40;;;10.60;99.90;;;;;;4266515;27;20112;-59
2024/02/29 04:53:08;;;;;;;1.25;0.50;;;10.60;99.90;;;;;;4266377;27;20046;-59
2024/02/29 04:55:10;;;;;;;0.85;0.77;;;10.60;99.90;;;;;;4265939;27;20117;-59
2024/02/29 04:57:13;;;;;;;1.95;0.55;;;10.60;99.90;;;;;;4266342;27;20050;-58
2024/02/29 04:59:15;;;;;;;0.60;0.35;;;10.60;99.90;;;;;;4266163;27;20054;-59
2024/02/29 05:01:17;;;;;;;0.20;0.20;;;10.70;99.90;;;;;;4265747;27;20149;-58
2024/02/29 05:03:19;;;;;;;0.30;0.30;;;10.80;99.90;;;;;;4265852;27;20423;-59
2024/02/29 05:05:23;;;;;;;0.40;0.25;;;10.80;99.90;;;;;;4266108;27;20050;-59
2024/02/29 05:07:25;;;;;;;0.90;0.40;;;10.80;99.90;;;;;;4266167;27;20126;-59
2024/02/29 05:09:27;;;;;;;1.70;0.82;;;10.80;99.90;;;;;;4266135;27;20529;-57
2024/02/29 05:11:29;;;;;;;1.48;0.50;;;10.70;99.90;;;;;;4266056;27;20050;-58
2024/02/29 05:13:31;;;;;;;0.60;0.30;;;10.80;99.90;;;;;;4265840;27;20099;-58
2024/02/29 05:15:35;;;;;;;0.20;0.13;;;10.80;99.90;;;;;;4266385;27;20046;-57
2024/02/29 05:17:37;;;;;;;0.75;0.63;;;10.80;99.90;;;;;;4266355;27;20408;-66
2024/02/29 05:19:39;;;;;;;0.90;0.60;;;10.80;99.90;;;;;;4266485;27;20050;-60
2024/02/29 05:21:45;;;;;;;0.40;0.40;;;10.80;99.90;;;;;;4266171;27;20043;-58
2024/02/29 05:23:48;;;;;;;0.77;0.75;;;10.80;99.90;;;;;;4266115;27;20046;-59
2024/02/29 05:25:50;;;;;;;3.15;1.10;;;10.70;99.90;;;;;;4265852;27;20119;-58
2024/02/29 05:27:52;;;;;;;0.20;0.20;;;10.70;99.90;;;;;;4265891;27;20043;-58
2024/02/29 05:29:54;;;;;;;0.60;0.20;;;10.70;99.90;;;;;;4265476;27;20043;-59
2024/02/29 05:31:56;;;;;;;0.35;0.35;;;10.80;99.90;;;;;;4265313;27;20555;-58
2024/02/29 05:33:58;;;;;;;0.20;0.20;;;10.80;99.90;;;;;;4265788;27;20044;-60
2024/02/29 05:36:00;;;;;;;5.03;1.20;;;10.70;99.90;;;;;;4247639;27;20054;-58
2024/02/29 05:38:06;;;;;;;0.43;0.35;;;10.70;99.90;;;;;;4265339;27;20050;-58
2024/02/29 05:40:10;;;;;;;0.60;0.30;;;10.70;99.90;;;;;;4265619;27;20166;-59
2024/02/29 05:42:12;;;;;;;0.40;0.22;;;10.80;99.90;;;;;;4265834;27;20039;-60
2024/02/29 05:44:14;;;;;;;0.45;0.20;;;10.80;99.90;;;;;;4265406;27;20556;-57
2024/02/29 05:46:16;;;;;;;0.35;0.35;;;10.70;99.90;;;;;;4265395;27;20051;-59
2024/02/29 05:48:18;;;;;;;0.55;0.30;;;10.70;99.90;;;;;;4265194;27;20081;-58
2024/02/29 05:50:21;;;;;;;0.22;0.22;;;10.80;99.90;;;;;;4265052;27;20091;-60
2024/02/29 05:52:23;;;;;;;0.43;0.40;;;10.80;99.90;;;;;;4265533;27;20042;-59
2024/02/29 05:54:26;;;;;;;0.47;0.47;;;10.90;99.90;;;;;;4265129;27;20125;-59
2024/02/29 05:56:28;;;;;;;0.45;0.45;;;10.80;99.90;;;;;;4264861;27;20465;-58
2024/02/29 05:58:31;;;;;;;0.70;0.32;;;10.80;99.90;;;;;;4265376;27;20285;-59
2024/02/29 06:00:33;;;;;;;2.20;0.50;;;10.80;99.90;;;;;;4264868;27;20051;-59
2024/02/29 06:02:36;;;;;;;1.85;0.82;;;10.80;99.90;;;;;;4265059;27;20128;-59
2024/02/29 06:04:38;;;;;;;0.35;0.35;;;10.70;99.90;;;;;;4265253;27;20543;-59
2024/02/29 06:06:40;;;;;;;0.45;0.43;;;10.70;99.90;;;;;;4265756;27;20590;-59
2024/02/29 06:08:42;;;;;;;0.40;0.35;;;10.80;99.90;;;;;;4264971;27;20571;-59
2024/02/29 06:10:49;;;;;;;0.60;0.60;;;10.70;99.90;;;;;;4265092;27;20039;-59
2024/02/29 06:12:53;;;;;;;0.40;0.40;;;10.60;99.90;;;;;;4264749;27;20046;-59
2024/02/29 06:14:55;;;;;;;0.90;0.50;;;10.50;99.90;;;;;;4265070;27;20042;-59
2024/02/29 06:16:57;;;;;;;0.90;0.45;;;10.50;99.90;;;;;;4265700;27;20453;-59
2024/02/29 06:18:59;;;;;;;0.30;0.30;;;10.60;99.90;;;;;;4265814;27;20043;-59
2024/02/29 06:21:03;;;;;;;1.38;0.47;;;10.60;99.90;;;;;;4265613;27;20064;-64
2024/02/29 06:23:06;;;;;;;0.37;0.30;;;10.60;99.90;;;;;;4266335;27;20482;-64
2024/02/29 06:25:09;;;;;;;0.30;0.30;;;10.60;99.90;;;;;;4265044;27;20038;-58
2024/02/29 06:27:12;;;;;;;0.68;0.35;;;10.50;99.90;;;;;;4264922;27;20096;-59
2024/02/29 06:29:14;;;;;;;0.47;0.47;;;10.50;99.90;;;;;;4264934;27;20104;-59
2024/02/29 06:31:17;;;;;;;1.75;0.57;;;10.40;99.90;;;;;;4265597;27;20575;-59
2024/02/29 06:33:19;;;;;;;1.77;0.63;;;10.40;99.90;;;;;;4264794;27;20127;-58
2024/02/29 06:35:21;;;;;;;0.40;0.30;;;10.40;99.90;;;;;;4265091;27;20067;-59
2024/02/29 06:37:23;;;;;;;0.45;0.45;;;10.40;99.90;;;;;;4264957;27;20042;-59
2024/02/29 06:39:26;;;;;;;0.82;0.55;;;10.40;99.90;;;;;;4265333;27;20042;-59
2024/02/29 06:41:28;;;;;;;1.10;0.38;;;10.40;99.90;;;;;;4264843;27;20066;-59
2024/02/29 06:43:32;;;;;;;0.30;0.30;;;10.40;99.90;;;;;;4246109;28;20054;-62
2024/02/29 06:45:34;;;;;;;0.75;0.30;;;10.30;99.90;;;;;;4264643;27;20043;-58
2024/02/29 06:47:38;;;;;;;1.05;0.90;;;10.30;99.90;;;;;;4264483;27;20046;-59
2024/02/29 06:49:41;;;;;;;0.60;0.55;;;10.30;99.90;;;;;;4264675;27;20545;-58
2024/02/29 06:51:43;;;;;;;0.70;0.70;;;10.30;99.90;;;;;;4264835;27;20047;-58
2024/02/29 06:53:45;;;;;;;1.20;0.82;;;10.30;99.90;;;;;;4264762;27;20399;-58
2024/02/29 06:55:47;;;;;;;0.65;0.47;;;10.30;99.90;;;;;;4264913;27;20411;-60
2024/02/29 06:57:51;;;;;;;0.40;0.40;;;10.30;99.90;;;;;;4264298;27;20053;-59
2024/02/29 06:59:55;;;;;;;1.48;0.70;;;10.30;99.90;;;;;;4264555;27;20465;-59
2024/02/29 07:01:57;;;;;;;0.30;0.30;;;10.30;99.90;;;;;;4264516;27;20051;-58
2024/02/29 07:03:59;;;;;;;1.10;0.60;;;10.30;99.90;;;;;;4264380;27;20046;-59
2024/02/29 07:06:02;;;;;;;0.90;0.35;;;10.30;99.90;;;;;;4264459;27;20492;-62
2024/02/29 07:08:05;;;;;;;1.33;0.45;;;10.30;99.90;;;;;;4264452;27;20122;-58
2024/02/29 07:10:07;;;;;;;0.90;0.65;;;10.20;99.90;;;;;;4264451;27;20476;-59
2024/02/29 07:12:10;;;;;;;1.67;0.43;;;10.30;99.90;;;;;;4264301;27;20043;-59
2024/02/29 07:14:12;;;;;;;0.30;0.30;;;10.20;99.90;;;;;;4264556;27;20049;-64
2024/02/29 07:16:15;;;;;;;0.40;0.38;;;10.10;99.90;;;;;;4246202;28;20047;-59
2024/02/29 07:18:19;;;;;;;1.45;0.68;;;10.10;99.90;;;;;;4264489;27;20043;-60
2024/02/29 07:20:21;;;;;;;0.47;0.40;;;10.20;99.90;;;;;;4264694;27;20042;-59
2024/02/29 07:22:25;;;;;;;1.20;0.70;;;10.30;99.90;;;;;;4264554;27;20457;-59
2024/02/29 07:24:31;;;;;;;0.57;0.40;;;10.30;99.90;;;;;;4266152;27;20095;-59
2024/02/29 07:26:33;;;;;;;0.95;0.47;;;10.30;99.90;;;;;;4267249;27;20103;-58
2024/02/29 07:28:35;;;;;;;0.57;0.30;;;10.40;99.90;;;;;;4267483;27;20047;-59
2024/02/29 07:30:37;;;;;;;0.63;0.22;;;10.30;99.90;;;;;;4267354;27;20050;-58
2024/02/29 07:32:41;;;;;;;0.50;0.43;;;10.40;99.90;;;;;;4267371;27;20422;-59
2024/02/29 07:34:43;;;;;;;1.00;0.50;;;10.30;99.90;;;;;;4248975;27;20127;-59
2024/02/29 07:36:45;;;;;;;1.58;0.75;;;10.30;99.90;;;;;;4267854;27;20139;-59
2024/02/29 07:38:47;;;;;;;0.50;0.38;;;10.30;99.90;;;;;;4268084;27;20403;-63
2024/02/29 07:40:49;;;;;;;0.75;0.30;;;10.30;99.90;;;;;;4267769;27;20039;-58
2024/02/29 07:42:52;;;;;;;0.20;0.20;;;10.30;99.90;;;;;;4267154;27;20415;-58
2024/02/29 07:44:54;;;;;;;2.13;0.50;;;10.30;99.90;;;;;;4267674;27;20042;-59
2024/02/29 07:46:56;;;;;;;0.20;0.20;;;10.30;99.90;;;;;;4267926;27;20063;-59
2024/02/29 07:48:59;;;;;;;0.95;0.57;;;10.30;99.90;;;;;;4266912;27;20134;-59
2024/02/29 07:51:01;;;;;;;0.30;0.30;;;10.20;99.90;;;;;;4267198;27;20106;-60
2024/02/29 07:53:04;;;;;;;0.30;0.30;;;10.30;99.90;;;;;;4267260;27;20129;-59
2024/02/29 07:55:06;;;;;;;2.30;1.02;;;10.30;99.90;;;;;;4267183;27;20125;-59
2024/02/29 07:57:09;;;;;;;1.25;1.00;;;10.20;99.90;;;;;;4266841;27;20458;-58
2024/02/29 07:59:12;;;;;;;0.70;0.45;;;10.20;99.90;;;;;;4266983;27;20516;-59
2024/02/29 08:01:14;;;;;;;0.90;0.30;;;10.10;99.90;;;;;;4266834;27;20075;-59
2024/02/29 08:03:16;;;;;;;0.73;0.30;;;10.10;99.90;;;;;;4266653;27;20747;-59
2024/02/29 08:05:20;;;;;;;1.00;0.40;;;10.20;99.90;;;;;;4267036;27;20057;-59
2024/02/29 08:07:22;;;;;;;0.40;0.30;;;10.20;99.90;;;;;;4266964;27;20122;-60
2024/02/29 08:09:25;;;;;;;4.82;0.57;;;10.20;99.90;;;;;;4266852;27;20075;-64
2024/02/29 08:11:27;;;;;;;1.88;0.47;;;10.10;99.90;;;;;;4248520;27;20071;-59
2024/02/29 08:13:29;;;;;;;0.20;0.15;;;10.10;99.90;;;;;;4267163;27;20066;-59
2024/02/29 08:15:31;;;;;;;0.45;0.40;;;10.10;99.90;;;;;;4267102;27;20042;-58
2024/02/29 08:17:33;;;;;;;1.25;0.68;;;10.10;99.90;;;;;;4267162;27;20125;-58
2024/02/29 08:19:36;;;;;;;0.30;0.30;;;10.20;99.90;;;;;;4266686;27;20045;-57
2024/02/29 08:21:39;;;;;;;1.00;0.30;;;10.20;99.90;;;;;;4267249;27;20042;-58
2024/02/29 08:23:42;;;;;;;0.73;0.67;;;10.30;99.90;;;;;;4266984;27;20074;-57
2024/02/29 08:25:44;;;;;;;1.70;1.27;;;10.30;99.90;;;;;;4266348;27;20316;-59
2024/02/29 08:27:46;;;;;;;0.47;0.47;;;10.30;99.90;;;;;;4266552;27;20066;-57
2024/02/29 08:29:49;;;;;;;1.15;0.63;;;10.20;99.90;;;;;;4266628;27;20069;-58
2024/02/29 08:31:51;;;;;;;1.05;0.52;;;10.20;99.90;;;;;;4266670;27;20134;-57
2024/02/29 08:33:54;;;;;;;1.60;0.65;;;10.30;99.90;;;;;;4266487;27;20046;-57
2024/02/29 08:35:56;;;;;;;0.90;0.75;;;10.20;99.90;;;;;;4265814;27;20404;-58
2024/02/29 08:37:59;;;;;;;0.30;0.30;;;10.20;99.90;;;;;;4266715;27;20035;-60
2024/02/29 08:40:04;;;;;;;1.10;0.40;;;10.10;99.90;;;;;;4266157;27;20064;-58
2024/02/29 08:42:09;;;;;;;0.28;0.20;;;10.10;99.90;;;;;;4266457;27;20046;-59
2024/02/29 08:44:11;;;;;;;0.40;0.30;;;10.10;99.90;;;;;;4266413;27;20484;-59
2024/02/29 08:46:13;;;;;;;0.70;0.50;;;10.20;99.90;;;;;;4266220;27;20043;-60
2024/02/29 08:48:16;;;;;;;0.70;0.50;;;10.10;99.90;;;;;;4266336;27;20043;-58
2024/02/29 08:50:18;;;;;;;1.30;0.43;;;10.20;99.90;;;;;;4266423;27;20043;-58
2024/02/29 08:52:20;;;;;;;2.65;1.65;;;10.20;99.90;;;;;;4266152;27;20068;-57
2024/02/29 08:54:23;;;;;;;1.08;0.40;;;10.20;99.90;;;;;;4266123;27;20054;-58
2024/02/29 08:56:26;;;;;;;4.20;1.08;;;10.20;99.90;;;;;;4266602;27;20046;-57
2024/02/29 08:58:28;;;;;;;0.38;0.35;;;10.20;99.90;;;;;;4248014;27;20050;-62
2024/02/29 09:00:30;;;;;;;1.00;0.63;;;10.30;99.90;;;;;;4267323;27;20103;-60
2024/02/29 09:02:32;;;;;;;0.40;0.40;;;10.30;99.90;;;;;;4266522;27;20047;-59
2024/02/29 09:04:34;;;;;;;0.32;0.28;;;10.30;99.90;;;;;;4247740;27;20095;-58
2024/02/29 09:06:36;;;;;;;1.70;1.17;;;10.30;99.90;;;;;;4265866;27;20121;-58
2024/02/29 09:08:43;;;;;;;1.60;0.35;;;10.40;99.90;;;;;;4265469;27;20042;-58
2024/02/29 09:10:46;;;;;;;1.23;0.30;;;10.40;99.90;;;;;;4265960;27;20125;-57
2024/02/29 09:12:49;;;;;;;1.25;0.85;;;10.40;99.90;;;;;;4265758;27;20046;-58
2024/02/29 09:14:51;;;;;;;0.52;0.40;;;10.40;99.90;;;;;;4265604;27;20073;-59
2024/02/29 09:16:54;;;;;;;0.40;0.30;;;10.30;99.90;;;;;;4265837;27;20480;-58
2024/02/29 09:18:56;;;;;;;1.50;0.40;;;10.40;99.90;;;;;;4265449;27;20092;-58
2024/02/29 09:21:00;;;;;;;;;;;10.40;99.90;;;;;;4266226;27;20049;-59
2024/02/29 09:23:03;;;;;;;1.50;0.73;;;10.50;99.90;;;;;;4265404;27;19919;-59
2024/02/29 09:25:06;;;;;;;0.40;0.40;;;10.50;99.90;;;;;;4265838;27;20038;-59
2024/02/29 09:27:10;;;;;;;0.35;0.30;;;10.50;99.90;;;;;;4265577;27;20042;-58
2024/02/29 09:29:12;;;;;;;0.30;0.30;;;10.40;99.90;;;;;;4247090;27;20436;-58
2024/02/29 09:31:14;;;;;;;0.20;0.20;;;10.40;99.90;;;;;;4247163;27;20473;-58
2024/02/29 09:33:17;;;;;;;0.28;0.20;;;10.50;99.90;;;;;;4265553;27;20050;-57
2024/02/29 09:35:20;;;;;;;0.98;0.55;;;10.50;99.90;;;;;;4265477;27;20058;-59
2024/02/29 09:37:22;;;;;;;0.30;0.30;;;10.60;99.90;;;;;;4265222;27;20538;-58
2024/02/29 09:39:24;;;;;;;0.30;0.30;;;10.50;99.90;;;;;;4265151;27;20408;-59
2024/02/29 09:41:27;;;;;;;2.03;0.65;;;10.50;99.90;;;;;;4265476;27;20042;-58
2024/02/29 09:43:51;;;;;;;1.13;0.77;;;10.60;99.90;;;;;;4265334;27;20136;-58
2024/02/29 09:45:55;;;;;;;0.90;0.40;;;10.70;99.90;;;;;;4265551;27;20487;-59
2024/02/29 09:47:59;;;;;;;0.73;0.47;;;10.70;99.90;;;;;;4265121;27;20042;-58
2024/02/29 09:50:01;;;;;;;0.40;0.38;;;10.70;99.90;;;;;;4265365;27;20049;-59
2024/02/29 09:52:07;;;;;;;0.77;0.40;;;10.70;99.90;;;;;;4265153;27;20062;-58
2024/02/29 09:54:14;;;;;;;0.22;0.22;;;10.70;99.90;;;;;;4246861;27;20047;-58
2024/02/29 09:56:20;;;;;;;0.77;0.30;;;10.70;99.90;;;;;;4264973;27;20568;-59
2024/02/29 09:58:22;;;;;;;0.45;0.20;;;10.80;99.90;;;;;;4265090;27;20046;-58
2024/02/29 10:00:26;;;;;;;0.60;0.50;;;10.70;99.90;;;;;;4265083;27;20062;-58
2024/02/29 10:02:28;;;;;;;0.88;0.38;;;10.70;99.90;;;;;;4265276;27;20510;-59
2024/02/29 10:04:30;;;;;;;2.00;0.75;;;10.80;99.90;;;;;;4264836;27;20092;-58
2024/02/29 10:06:33;;;;;;;0.63;0.63;;;10.90;99.90;;;;;;4264799;27;20571;-58
2024/02/29 10:08:35;;;;;;;0.52;0.30;;;10.80;99.90;;;;;;4259514;27;20055;-59
2024/02/29 10:10:37;;;;;;;0.25;0.15;;;10.90;99.90;;;;;;4248965;27;20058;-59
2024/02/29 10:12:40;;;;;;;0.45;0.45;;;11.10;99.90;;;;;;4264973;27;20045;-58
2024/02/29 10:14:42;;;;;;;0.70;0.65;;;11.30;99.90;;;;;;4265185;27;20043;-62
2024/02/29 10:16:50;;;;;;;0.75;0.32;;;11.30;99.90;;;;;;4257979;27;20043;-58
2024/02/29 10:18:52;;;;;;;1.90;0.45;;;11.20;99.90;;;;;;4269541;27;20062;-58
2024/02/29 10:20:54;;;;;;;0.55;0.28;;;11.30;99.90;;;;;;4272855;27;20046;-59
2024/02/29 10:22:56;;;;;;;0.20;0.20;;;11.30;99.90;;;;;;4272563;27;20042;-59
2024/02/29 10:25:00;;;;;;;0.30;0.30;;;11.20;99.90;;;;;;4272824;27;20043;-59
2024/02/29 10:27:03;;;;;;;1.10;1.00;;;11.30;99.90;;;;;;4254018;27;20139;-58
2024/02/29 10:29:08;;;;;;;0.20;0.20;;;11.20;99.90;;;;;;4272486;27;20422;-58
2024/02/29 10:31:09;;;;;;;;;;;11.20;99.90;;;;;;4268720;27;20067;-59
2024/02/29 10:33:13;;;;;;;1.85;0.98;;;11.20;99.90;;;;;;4258796;27;19919;-60
2024/02/29 10:35:20;;;;;;;0.20;0.20;;;11.10;99.90;;;;;;4255549;27;20053;-59
2024/02/29 10:37:22;;;;;;;0.20;0.20;;;11.10;99.90;;;;;;4261059;27;20130;-59
2024/02/29 10:39:25;;;;;;;0.77;0.35;;;11.10;99.90;;;;;;4253309;27;20044;-59